createdAt,value
2023-06-18T04:16:11.168Z,6.22
2023-06-18T04:19:36.586Z,4.80
2023-06-18T04:23:02.132Z,4.70
2023-06-18T04:30:11.101Z,5.20
2023-06-18T04:33:37.656Z,4.05
2023-06-18T06:53:59.873Z,3.00
2023-06-18T06:57:25.205Z,2.88
2023-06-18T07:00:50.631Z,3.50
2023-06-18T07:04:16.196Z,3.17
2023-06-18T09:39:33.665Z,3.47
2023-06-18T09:43:04.184Z,4.05
2023-06-18T09:46:30.382Z,3.28
2023-06-18T09:56:57.701Z,3.42
2023-06-18T10:00:23.756Z,3.10
2023-06-18T10:03:49.465Z,3.72
2023-06-18T10:07:18.565Z,3.40
2023-06-18T10:10:46.048Z,3.75
2023-06-18T10:14:15.389Z,4.32
2023-06-18T10:17:53.127Z,3.53
2023-06-18T10:21:21.093Z,3.70
2023-06-18T10:24:48.117Z,3.78
2023-06-18T10:28:13.673Z,3.78
2023-06-18T10:31:40.351Z,3.33
2023-06-18T10:35:08.835Z,3.88
2023-06-18T10:38:36.771Z,3.75
2023-06-18T10:42:14.728Z,3.40
2023-06-18T10:46:04.332Z,3.63
2023-06-18T10:49:29.763Z,3.35
2023-06-18T10:53:18.042Z,3.65
2023-06-18T10:56:50.916Z,3.50
2023-06-18T11:00:18.006Z,4.13
2023-06-18T11:03:44.534Z,3.70
2023-06-18T11:07:27.748Z,3.70
2023-06-18T11:11:02.382Z,3.65
2023-06-18T11:14:32.158Z,4.22
2023-06-18T11:18:18.835Z,3.95
2023-06-18T11:21:47.039Z,3.92
2023-06-18T11:25:13.829Z,4.07
2023-06-18T11:28:41.488Z,4.25
2023-06-18T11:32:13.773Z,3.97
2023-06-18T11:35:40.285Z,4.15
2023-06-18T11:39:05.815Z,4.00
2023-06-18T11:42:31.188Z,4.40
2023-06-18T11:45:59.207Z,3.65
2023-06-18T11:52:49.914Z,4.78
2023-06-18T11:56:15.510Z,4.38
2023-06-18T11:59:41.357Z,4.00
2023-06-18T12:03:10.766Z,3.95
2023-06-18T12:06:37.346Z,4.45
2023-06-18T12:10:08.012Z,4.30
2023-06-18T12:13:41.473Z,3.92
2023-06-18T12:17:30.298Z,4.05
2023-06-18T12:20:59.136Z,4.68
2023-06-18T12:24:27.597Z,4.85
2023-06-18T12:27:53.797Z,4.13
2023-06-18T12:31:25.461Z,4.18
2023-06-18T12:34:50.864Z,4.13
2023-06-18T12:38:16.336Z,4.20
2023-06-18T12:41:59.965Z,4.30
2023-06-18T12:45:29.345Z,4.25
2023-06-18T12:48:59.341Z,4.03
2023-06-18T12:52:46.745Z,4.03
2023-06-18T12:56:27.644Z,5.18
2023-06-18T12:59:53.300Z,3.78
2023-06-18T13:03:19.683Z,4.97
2023-06-18T13:06:46.952Z,4.38
2023-06-18T13:10:12.328Z,4.68
2023-06-18T13:13:37.759Z,4.13
2023-06-18T13:17:04.124Z,5.03
2023-06-18T13:20:30.382Z,4.30
2023-06-18T13:27:21.429Z,4.47
2023-06-18T13:30:46.922Z,4.32
2023-06-18T13:34:12.439Z,4.38
2023-06-18T13:37:37.961Z,4.70
2023-06-18T13:41:04.884Z,4.57
2023-06-18T13:44:30.333Z,5.60
2023-06-18T13:47:55.715Z,3.90
2023-06-18T13:51:21.576Z,4.07
2023-06-18T13:54:47.514Z,4.35
2023-06-18T13:58:13.307Z,4.40
2023-06-18T14:01:38.684Z,4.15
2023-06-18T14:05:04.451Z,4.30
2023-06-18T14:08:30.022Z,3.97
2023-06-18T14:11:55.826Z,4.32
2023-06-18T14:15:21.971Z,4.20
2023-06-18T14:18:49.910Z,4.07
2023-06-18T14:22:15.603Z,4.18
2023-06-18T14:25:41.585Z,4.43
2023-06-18T14:29:07.144Z,4.63
2023-06-18T14:32:32.638Z,4.45
2023-06-18T14:35:58.081Z,4.50
2023-06-18T14:39:24.129Z,4.45
2023-06-18T14:42:49.837Z,4.30
2023-06-18T14:46:15.463Z,4.40
2023-06-18T14:49:40.928Z,4.50
2023-06-18T14:53:08.317Z,4.13
2023-06-18T14:56:34.570Z,4.55
2023-06-18T15:00:00.050Z,4.35
2023-06-18T15:03:26.023Z,4.32
2023-06-18T15:06:51.762Z,4.65
2023-06-18T15:10:17.204Z,4.70
2023-06-18T15:13:42.604Z,3.65
2023-06-18T15:17:07.926Z,4.78
2023-06-18T15:20:37.883Z,5.25
2023-06-18T15:24:03.333Z,4.45
2023-06-18T15:27:28.721Z,4.32
2023-06-18T15:30:54.550Z,3.80
2023-06-18T15:34:19.952Z,4.93
2023-06-18T15:37:45.448Z,4.68
2023-06-18T15:41:11.217Z,4.30
2023-06-18T15:44:36.582Z,4.15
2023-06-18T15:48:02.407Z,4.65
2023-06-18T15:51:27.970Z,3.92
2023-06-18T15:54:53.611Z,4.70
2023-06-18T15:58:19.841Z,5.22
2023-06-18T16:01:45.777Z,5.13
2023-06-18T16:05:11.518Z,4.60
2023-06-18T16:08:38.017Z,5.13
2023-06-18T16:12:03.502Z,5.00
2023-06-18T16:15:28.966Z,6.13
2023-06-18T16:18:54.326Z,4.30
2023-06-18T16:22:20.094Z,5.43
2023-06-18T16:25:45.433Z,4.57
2023-06-18T16:29:10.820Z,4.30
2023-06-18T16:32:36.256Z,4.05
2023-06-18T16:36:01.856Z,4.85
2023-06-18T16:39:27.345Z,4.68
2023-06-18T16:42:52.771Z,4.65
2023-06-18T16:46:21.316Z,4.65
2023-06-18T16:49:46.745Z,5.05
2023-06-18T16:53:12.199Z,4.82
2023-06-18T16:56:37.627Z,4.85
2023-06-18T17:00:04.010Z,4.68
2023-06-18T17:03:29.553Z,4.90
2023-06-18T17:06:55.028Z,5.18
2023-06-18T17:10:20.429Z,4.75
2023-06-18T17:13:46.155Z,4.50
2023-06-18T17:17:11.695Z,5.97
2023-06-18T17:20:38.393Z,4.68
2023-06-18T17:24:04.149Z,4.55
2023-06-18T17:27:29.551Z,4.95
2023-06-18T17:30:55.027Z,6.07
2023-06-18T17:34:23.404Z,4.80
2023-06-18T17:37:49.766Z,5.50
2023-06-18T17:41:15.199Z,5.05
2023-06-18T17:44:41.624Z,5.15
2023-06-18T17:48:07.111Z,5.82
2023-06-18T17:51:33.774Z,5.25
2023-06-18T17:54:59.166Z,6.20
2023-06-18T17:58:24.850Z,7.90
2023-06-18T18:01:51.803Z,7.40
2023-06-18T18:05:17.254Z,6.72
2023-06-18T18:08:45.688Z,5.45
2023-06-18T18:12:11.102Z,5.43
2023-06-18T18:15:36.656Z,5.72
2023-06-18T18:19:02.151Z,5.20
2023-06-18T18:22:27.482Z,5.90
2023-06-18T18:25:59.749Z,5.70
2023-06-18T18:29:35.106Z,6.40
2023-06-18T18:33:00.643Z,5.97
2023-06-18T18:36:26.079Z,7.28
2023-06-18T18:39:51.802Z,5.45
2023-06-18T18:43:18.092Z,10.05
2023-06-18T18:46:43.560Z,7.93
2023-06-18T18:50:09.247Z,12.25
2023-06-18T18:53:34.718Z,11.02
2023-06-18T18:57:00.177Z,9.95
2023-06-18T19:00:25.879Z,11.55
2023-06-18T19:03:51.304Z,19.95
2023-06-18T19:07:17.620Z,9.55
2023-06-18T19:10:43.161Z,10.18
2023-06-18T19:14:08.525Z,9.60
2023-06-18T19:17:34.030Z,8.77
2023-06-18T19:20:59.539Z,14.88
2023-06-18T19:24:24.902Z,14.05
2023-06-18T19:27:50.283Z,15.60
2023-06-18T19:31:16.243Z,10.00
2023-06-18T19:34:41.657Z,9.95
2023-06-18T19:38:07.069Z,8.13
2023-06-18T19:41:32.927Z,7.30
2023-06-18T19:44:58.289Z,6.68
2023-06-18T19:48:24.171Z,8.07
2023-06-18T19:51:49.601Z,8.85
2023-06-18T19:55:15.135Z,6.50
2023-06-18T19:58:40.787Z,7.47
2023-06-18T20:02:06.557Z,10.75
2023-06-18T20:05:32.230Z,10.45
2023-06-18T20:08:57.789Z,8.35
2023-06-18T20:12:23.226Z,9.95
2023-06-18T20:15:48.803Z,6.95
2023-06-18T20:19:14.218Z,6.82
2023-06-18T20:22:39.615Z,10.40
2023-06-18T20:26:06.649Z,8.05
2023-06-18T20:29:32.455Z,6.45
2023-06-18T20:32:58.450Z,5.72
2023-06-18T20:36:23.923Z,6.57
2023-06-18T20:39:49.299Z,5.75
2023-06-18T21:31:15.648Z,6.55
2023-06-18T21:34:41.117Z,6.20
2023-06-18T21:38:06.470Z,6.38
2023-06-18T21:41:33.002Z,5.57
2023-06-18T21:44:58.443Z,10.82
